Portada
METAR-TAF:

METAR-TAF

Aeroports :

Leticia, Colòmbia

latitud: 04-10S, longitud: 069-57W, altitud: 84 m

Observació

L'informe es va fer fa 1 hora i 17 minuts, a les 21:00 UTC
Temperatura
Pressió

METAR: SKLT 292100Z IDEAM NIL

Hora: 17:17 (22:17 UTC)

Pronòstic

L'informe es va fer fa 5 hores i 47 minuts, a les 16:30 UTC
Pronòstic vàlid del 29 a les 18 UTC al 30 a les 18 UTC
Vent 4 kt del Nord/Nord-Est
Visibilitat 10 km o més
Núvols disperses a una alçada de 1500 ft
Cel ennuvolat a una alçada de 10000 ft
Probabilitat 40% :
Temporalment
l' 29 a les 19 UTC al 29 a les 23 UTC
Visibilitat: 6000 m
Cel ennuvolat a una alçada de 1500 ft, Cumulonimbus.
tempesta, pluja

TAF: SKLT 291630Z 2918/3018 03004KT 9999 SCT015 BKN100 PROB40 TEMPO 2919/2923 6000 TSRA BKN015CB TX30/2918Z TN22/3010Z

Observacions i pronòstics meteorològics de més de 4000 aeroports (METAR i TAF).

Les estacions disponibles són els punts grocs i vermells al mapa.

Posi el ratolí al punt desitjat per veure el nom de l'estació.

Feu clic per veure les observacions i els pronòstics meteorològics.

Per canviar el mapa: feu clic els botons verds amb una creu de color negre per apropar; al botó verd amb un guió per allunyar la imatge; o en les fletxes verdes per a mapes adjacents.


METAR-TAF: